createdAt,value
2023-03-14T00:00:20.165Z,50.85
2023-03-14T00:02:55.984Z,50.66
2023-03-14T00:05:25.766Z,50.73
2023-03-14T00:07:54.983Z,50.64
2023-03-14T00:10:23.379Z,50.72
2023-03-14T00:12:53.205Z,50.72
2023-03-14T00:15:22.006Z,50.69
2023-03-14T00:17:51.008Z,50.72
2023-03-14T00:20:19.545Z,50.76
2023-03-14T00:22:48.428Z,50.89
2023-03-14T00:25:19.182Z,50.83
2023-03-14T00:27:47.669Z,50.85
2023-03-14T00:30:16.267Z,50.86
2023-03-14T00:32:45.146Z,51.21
2023-03-14T00:35:14.008Z,50.87
2023-03-14T00:37:42.318Z,50.93
2023-03-14T00:40:12.445Z,51.11
2023-03-14T00:42:40.885Z,51.07
2023-03-14T00:45:11.607Z,51.02
2023-03-14T00:47:40.526Z,51.10
2023-03-14T00:50:11.305Z,50.99
2023-03-14T00:52:42.236Z,50.89
2023-03-14T00:55:11.264Z,51.07
2023-03-14T00:57:40.283Z,51.15
2023-03-14T01:00:13.318Z,51.17
2023-03-14T01:02:46.394Z,51.08
2023-03-14T01:05:16.344Z,51.15
2023-03-14T01:07:45.234Z,51.32
2023-03-14T01:10:15.969Z,51.13
2023-03-14T01:12:44.744Z,51.51
2023-03-14T01:15:13.927Z,51.40
2023-03-14T01:17:42.513Z,51.22
2023-03-14T01:20:15.147Z,51.17
2023-03-14T01:22:45.073Z,51.43
2023-03-14T01:25:17.662Z,51.42
2023-03-14T01:27:47.287Z,51.38
2023-03-14T01:30:17.086Z,51.31
2023-03-14T01:32:46.130Z,51.42
2023-03-14T01:35:15.056Z,51.46
2023-03-14T01:37:44.379Z,51.49
2023-03-14T01:40:18.951Z,51.55
2023-03-14T01:42:59.015Z,51.63
2023-03-14T01:46:05.636Z,51.70
2023-03-14T01:48:57.003Z,51.68
2023-03-14T01:51:35.671Z,51.60
2023-03-14T01:54:20.319Z,51.80
2023-03-14T01:57:14.642Z,52.01
2023-03-14T02:00:21.269Z,52.13
2023-03-14T02:03:02.885Z,51.97
2023-03-14T02:05:35.963Z,51.94
2023-03-14T02:08:34.718Z,51.98
2023-03-14T02:11:08.417Z,52.16
2023-03-14T02:13:56.190Z,52.32
2023-03-14T02:16:37.269Z,52.29
2023-03-14T02:19:53.527Z,52.25
2023-03-14T02:22:38.547Z,52.31
2023-03-14T02:25:23.025Z,52.48
2023-03-14T02:27:52.624Z,52.41
2023-03-14T02:30:29.453Z,52.46
2023-03-14T02:33:20.146Z,52.46
2023-03-14T02:36:03.605Z,52.71
2023-03-14T02:39:23.116Z,52.70
2023-03-14T02:41:52.014Z,52.74
2023-03-14T02:44:21.610Z,52.72
2023-03-14T02:46:51.557Z,52.84
2023-03-14T02:49:20.327Z,52.65
2023-03-14T02:51:50.650Z,52.60
2023-03-14T02:54:21.781Z,52.49
2023-03-14T02:56:51.833Z,52.51
2023-03-14T02:59:22.960Z,52.55
2023-03-14T03:01:55.843Z,52.36
2023-03-14T03:04:24.583Z,52.37
2023-03-14T03:06:52.887Z,52.29
2023-03-14T03:09:21.587Z,52.14
2023-03-14T03:11:52.390Z,52.10
2023-03-14T03:14:25.112Z,52.27
2023-03-14T03:16:55.843Z,52.18
2023-03-14T03:19:24.240Z,52.14
2023-03-14T03:21:52.669Z,52.07
2023-03-14T03:24:21.174Z,51.99
2023-03-14T03:26:51.060Z,51.92
2023-03-14T03:29:21.402Z,51.85
2023-03-14T03:31:49.923Z,51.82
2023-03-14T03:34:23.810Z,51.57
2023-03-14T03:36:59.042Z,51.65
2023-03-14T03:39:29.851Z,51.93
2023-03-14T03:41:59.200Z,51.54
2023-03-14T03:44:28.205Z,51.50
2023-03-14T03:46:56.615Z,51.42
2023-03-14T03:49:25.821Z,51.35
2023-03-14T03:51:54.529Z,51.22
2023-03-14T03:54:23.756Z,51.08
2023-03-14T03:56:52.619Z,51.03
2023-03-14T03:59:21.975Z,50.96
2023-03-14T04:01:50.362Z,50.98
2023-03-14T04:04:19.801Z,50.68
2023-03-14T04:06:48.662Z,50.71
2023-03-14T04:09:17.340Z,50.77
2023-03-14T04:11:52.657Z,50.66
2023-03-14T04:14:23.968Z,50.87
2023-03-14T04:17:04.071Z,50.73
2023-03-14T04:19:32.814Z,50.35
2023-03-14T04:22:01.402Z,50.03
2023-03-14T04:24:35.531Z,50.16
2023-03-14T04:27:05.243Z,50.07
2023-03-14T04:29:36.712Z,49.78
2023-03-14T04:32:08.054Z,49.70
2023-03-14T04:34:39.976Z,49.90
2023-03-14T04:37:09.572Z,49.57
2023-03-14T04:39:43.603Z,49.49
2023-03-14T04:42:19.586Z,49.52
2023-03-14T04:44:50.547Z,49.49
2023-03-14T04:47:21.977Z,49.43
2023-03-14T04:49:51.823Z,49.37
2023-03-14T04:52:21.256Z,49.33
2023-03-14T04:54:50.340Z,49.23
2023-03-14T04:57:22.368Z,49.18
2023-03-14T04:59:52.246Z,49.12
2023-03-14T05:02:44.265Z,49.24
2023-03-14T05:05:24.081Z,49.45
2023-03-14T05:08:18.320Z,49.44
2023-03-14T05:11:12.765Z,49.81
2023-03-14T05:13:59.715Z,49.85
2023-03-14T05:16:49.913Z,49.64
2023-03-14T05:19:29.740Z,49.75
2023-03-14T05:22:15.601Z,49.60
2023-03-14T05:25:02.787Z,49.66
2023-03-14T05:27:31.572Z,49.53
2023-03-14T05:30:18.109Z,49.52
2023-03-14T05:33:06.953Z,49.46
2023-03-14T05:35:54.236Z,49.50
2023-03-14T05:38:41.130Z,49.07
2023-03-14T05:41:22.752Z,49.00
2023-03-14T05:44:09.849Z,49.13
2023-03-14T05:47:06.672Z,49.12
2023-03-14T05:49:38.563Z,49.23
2023-03-14T05:52:20.058Z,49.23
2023-03-14T05:54:57.841Z,49.00
2023-03-14T05:57:46.884Z,49.05
2023-03-14T06:00:25.303Z,48.79
2023-03-14T06:03:07.999Z,48.75
2023-03-14T06:05:40.150Z,48.62
2023-03-14T06:08:08.674Z,48.65
2023-03-14T06:10:40.748Z,48.55
2023-03-14T06:13:11.706Z,48.58
2023-03-14T06:15:40.202Z,48.67
2023-03-14T06:18:08.772Z,48.50
2023-03-14T06:20:41.836Z,48.52
2023-03-14T06:23:13.211Z,48.62
2023-03-14T06:25:43.220Z,48.48
2023-03-14T06:28:14.624Z,48.56
2023-03-14T06:30:43.525Z,48.43
2023-03-14T06:33:14.572Z,48.55
2023-03-14T06:35:45.466Z,48.62
2023-03-14T06:38:13.796Z,48.46
2023-03-14T06:40:42.759Z,48.50
2023-03-14T06:43:14.987Z,48.53
2023-03-14T06:45:48.794Z,48.71
2023-03-14T06:48:17.105Z,48.36
2023-03-14T06:50:50.975Z,48.38
2023-03-14T06:53:20.657Z,48.21
2023-03-14T06:55:50.614Z,48.29
2023-03-14T06:58:20.847Z,48.35
2023-03-14T07:00:55.740Z,48.30
2023-03-14T07:03:33.973Z,48.38
2023-03-14T07:06:07.312Z,48.26
2023-03-14T07:08:37.468Z,48.52
2023-03-14T07:11:06.255Z,48.31
2023-03-14T07:13:37.400Z,48.30
2023-03-14T07:16:09.616Z,48.22
2023-03-14T07:18:39.880Z,48.22
2023-03-14T07:21:15.708Z,48.20
2023-03-14T07:23:46.766Z,48.27
2023-03-14T07:26:16.964Z,48.01
2023-03-14T07:28:51.227Z,48.04
2023-03-14T07:31:26.527Z,47.82
2023-03-14T07:33:55.586Z,47.99
2023-03-14T07:36:25.606Z,47.97
2023-03-14T07:38:53.916Z,47.92
2023-03-14T07:41:24.056Z,47.86
2023-03-14T07:44:11.053Z,48.09
2023-03-14T07:46:39.699Z,47.93
2023-03-14T07:49:09.643Z,48.14
2023-03-14T07:51:37.866Z,48.09
2023-03-14T07:54:07.401Z,48.02
2023-03-14T07:56:36.311Z,48.01
2023-03-14T07:59:05.681Z,47.76
2023-03-14T08:01:36.125Z,47.71
2023-03-14T08:04:04.472Z,47.91
2023-03-14T08:06:35.720Z,47.87
2023-03-14T08:09:05.674Z,47.74
2023-03-14T08:11:34.192Z,47.47
2023-03-14T08:14:03.362Z,47.47
2023-03-14T08:16:33.006Z,47.39
2023-03-14T08:19:02.270Z,47.45
2023-03-14T08:21:32.361Z,47.64
2023-03-14T08:24:01.796Z,47.61
2023-03-14T08:26:30.304Z,47.82
2023-03-14T08:28:58.858Z,47.88
2023-03-14T08:31:28.559Z,47.66
2023-03-14T08:33:59.488Z,47.64
2023-03-14T08:36:30.198Z,47.63
2023-03-14T08:38:59.197Z,47.50
2023-03-14T08:41:29.029Z,47.73
2023-03-14T08:43:59.392Z,47.75
2023-03-14T08:46:27.947Z,47.92
2023-03-14T08:48:57.177Z,48.19
2023-03-14T08:51:26.486Z,48.05
2023-03-14T08:53:57.570Z,47.97
2023-03-14T08:56:28.463Z,48.11
2023-03-14T08:58:57.965Z,48.21
2023-03-14T09:01:27.418Z,48.25
2023-03-14T09:03:58.639Z,48.12
2023-03-14T09:06:27.852Z,48.08
2023-03-14T09:08:59.613Z,48.05
2023-03-14T09:11:30.105Z,48.00
2023-03-14T09:14:00.045Z,47.89
2023-03-14T09:16:29.871Z,47.92
2023-03-14T09:19:00.829Z,47.95
2023-03-14T09:21:30.007Z,47.80
2023-03-14T09:23:58.185Z,47.91
2023-03-14T09:26:26.572Z,47.74
2023-03-14T09:28:57.044Z,47.70
2023-03-14T09:31:26.865Z,47.45
2023-03-14T09:33:55.137Z,47.29
2023-03-14T09:36:24.352Z,47.02
2023-03-14T09:38:52.865Z,47.14
2023-03-14T09:41:38.285Z,47.17
2023-03-14T09:44:33.075Z,47.24
2023-03-14T09:47:08.515Z,46.92
2023-03-14T09:49:41.347Z,46.88
2023-03-14T09:52:30.635Z,46.58
2023-03-14T09:55:05.346Z,46.83
2023-03-14T09:57:42.575Z,46.90
2023-03-14T10:00:23.195Z,47.05
2023-03-14T10:03:16.494Z,47.06
2023-03-14T10:05:47.045Z,47.15
2023-03-14T10:08:19.813Z,47.25
2023-03-14T10:10:50.800Z,47.46
2023-03-14T10:13:30.469Z,47.34
2023-03-14T10:16:09.210Z,47.37
2023-03-14T10:18:42.808Z,47.65
2023-03-14T10:21:30.249Z,47.69
2023-03-14T10:24:55.850Z,48.06
2023-03-14T10:27:33.574Z,48.26
2023-03-14T10:30:45.045Z,48.45
2023-03-14T10:33:30.035Z,48.57
2023-03-14T10:36:07.633Z,48.68
2023-03-14T10:38:39.000Z,48.76
2023-03-14T10:41:27.186Z,48.88
2023-03-14T10:44:02.734Z,49.25
2023-03-14T10:46:35.750Z,49.36
2023-03-14T10:49:42.393Z,49.82
2023-03-14T10:52:31.545Z,50.08
2023-03-14T10:55:14.206Z,50.12
2023-03-14T10:57:44.647Z,50.06
2023-03-14T11:00:23.828Z,50.28
2023-03-14T11:03:15.865Z,50.38
2023-03-14T11:06:05.324Z,50.60
2023-03-14T11:08:53.211Z,51.04
2023-03-14T11:11:26.624Z,51.26
2023-03-14T11:14:22.091Z,51.38
2023-03-14T11:17:26.109Z,51.83
2023-03-14T11:20:43.091Z,51.94
2023-03-14T11:23:24.195Z,52.35
2023-03-14T11:26:12.003Z,52.41
2023-03-14T11:28:48.814Z,52.53
2023-03-14T11:31:35.180Z,52.31
2023-03-14T11:34:45.436Z,52.38
2023-03-14T11:37:21.519Z,52.44
2023-03-14T11:40:20.684Z,52.47
2023-03-14T11:43:17.167Z,52.48
2023-03-14T11:45:50.349Z,52.49
2023-03-14T11:48:39.621Z,52.70
2023-03-14T11:51:24.718Z,52.54
2023-03-14T11:54:02.599Z,52.25
2023-03-14T11:57:30.771Z,51.82
2023-03-14T12:00:24.429Z,51.53
2023-03-14T12:03:16.329Z,51.31
2023-03-14T12:06:25.471Z,51.08
2023-03-14T12:09:04.644Z,50.84
2023-03-14T12:12:02.417Z,50.32
2023-03-14T12:14:37.825Z,50.24
2023-03-14T12:17:35.161Z,50.23
2023-03-14T12:20:23.254Z,50.16
2023-03-14T12:23:00.344Z,49.97
2023-03-14T12:25:33.765Z,49.45
2023-03-14T12:28:22.876Z,49.00
2023-03-14T12:30:53.922Z,49.27
2023-03-14T12:33:29.594Z,48.86
2023-03-14T12:36:12.221Z,48.36
2023-03-14T12:39:22.752Z,48.20
2023-03-14T12:42:03.037Z,48.39
2023-03-14T12:44:31.323Z,48.11
2023-03-14T12:47:01.610Z,47.75
2023-03-14T12:49:36.704Z,47.63
2023-03-14T12:52:21.129Z,47.14
2023-03-14T12:54:59.592Z,47.36
2023-03-14T12:57:53.837Z,47.04
2023-03-14T13:00:32.570Z,46.83
2023-03-14T13:03:37.564Z,45.92
2023-03-14T13:06:13.575Z,45.44
2023-03-14T13:08:46.253Z,45.47
2023-03-14T13:11:21.011Z,44.58
2023-03-14T13:14:00.138Z,42.99
2023-03-14T13:16:29.900Z,41.88
2023-03-14T13:19:16.253Z,41.18
2023-03-14T13:21:47.374Z,40.46
2023-03-14T13:24:28.425Z,40.59
2023-03-14T13:26:59.030Z,40.15
2023-03-14T13:29:32.820Z,39.65
2023-03-14T13:32:21.989Z,39.36
2023-03-14T13:34:50.776Z,39.07
2023-03-14T13:37:25.529Z,38.88
2023-03-14T13:39:59.094Z,38.97
2023-03-14T13:42:31.077Z,39.30
2023-03-14T13:44:59.849Z,39.13
2023-03-14T13:47:30.954Z,39.42
2023-03-14T13:50:02.304Z,38.95
2023-03-14T13:52:40.430Z,38.39
2023-03-14T13:55:19.532Z,38.62
2023-03-14T13:57:59.499Z,38.16
2023-03-14T14:00:31.028Z,38.14
2023-03-14T14:03:01.780Z,37.92
2023-03-14T14:05:34.914Z,38.12
2023-03-14T14:08:05.632Z,37.14
2023-03-14T14:10:38.630Z,37.18
2023-03-14T14:13:20.254Z,36.54
2023-03-14T14:15:53.075Z,36.45
2023-03-14T14:18:29.715Z,36.27
2023-03-14T14:21:00.968Z,37.02
2023-03-14T14:23:33.024Z,37.23
2023-03-14T14:26:09.549Z,37.04
2023-03-14T14:28:39.506Z,36.68
2023-03-14T14:31:25.235Z,36.67
2023-03-14T14:34:00.111Z,37.04
2023-03-14T14:36:39.173Z,36.74
2023-03-14T14:39:30.065Z,36.25
2023-03-14T14:41:58.440Z,36.58
2023-03-14T14:44:35.154Z,35.99
2023-03-14T14:47:07.875Z,36.15
2023-03-14T14:49:36.254Z,35.74
2023-03-14T14:52:18.585Z,35.18
2023-03-14T14:54:59.892Z,35.20
2023-03-14T14:57:41.212Z,35.52
2023-03-14T15:00:20.764Z,35.41
2023-03-14T15:02:55.288Z,35.50
2023-03-14T15:05:27.865Z,35.55
2023-03-14T15:07:56.585Z,35.45
2023-03-14T15:10:26.814Z,35.46
2023-03-14T15:12:55.622Z,35.60
2023-03-14T15:15:24.762Z,35.59
2023-03-14T15:17:52.973Z,35.45
2023-03-14T15:20:24.791Z,35.14
2023-03-14T15:22:53.874Z,35.24
2023-03-14T15:25:47.333Z,35.26
2023-03-14T15:28:31.050Z,34.65
2023-03-14T15:31:00.349Z,35.24
2023-03-14T15:33:34.836Z,35.23
2023-03-14T15:36:16.174Z,35.30
2023-03-14T15:38:44.392Z,35.45
2023-03-14T15:41:17.525Z,35.28
2023-03-14T15:43:46.707Z,35.44
2023-03-14T15:46:16.083Z,35.56
2023-03-14T15:48:47.770Z,35.53
2023-03-14T15:51:18.959Z,35.40
2023-03-14T15:53:49.414Z,35.38
2023-03-14T15:56:20.561Z,36.18
2023-03-14T15:59:08.844Z,36.14
2023-03-14T16:02:01.461Z,36.11
2023-03-14T16:04:30.499Z,36.10
2023-03-14T16:06:59.832Z,35.45
2023-03-14T16:09:28.134Z,35.56
2023-03-14T16:11:57.801Z,35.58
2023-03-14T16:14:29.038Z,35.98
2023-03-14T16:17:00.223Z,36.03
2023-03-14T16:19:29.434Z,35.82
2023-03-14T16:21:58.284Z,36.11
2023-03-14T16:24:27.322Z,36.09
2023-03-14T16:26:59.859Z,35.98
2023-03-14T16:29:28.543Z,35.99
2023-03-14T16:31:58.502Z,35.96
2023-03-14T16:34:28.553Z,35.77
2023-03-14T16:36:56.897Z,35.97
2023-03-14T16:39:25.878Z,35.84
2023-03-14T16:41:57.264Z,35.77
2023-03-14T16:44:27.443Z,35.75
2023-03-14T16:46:56.659Z,35.68
2023-03-14T16:49:25.417Z,36.02
2023-03-14T16:51:53.712Z,35.98
2023-03-14T16:54:22.114Z,35.97
2023-03-14T16:56:50.791Z,36.02
2023-03-14T16:59:19.680Z,35.97
2023-03-14T17:01:48.227Z,36.27
2023-03-14T17:04:18.697Z,36.26
2023-03-14T17:06:47.125Z,36.65
2023-03-14T17:09:16.706Z,36.35
2023-03-14T17:11:44.983Z,36.70
2023-03-14T17:14:13.655Z,36.86
2023-03-14T17:16:43.554Z,37.08
2023-03-14T17:19:12.114Z,37.13
2023-03-14T17:21:42.167Z,37.35
2023-03-14T17:24:11.276Z,37.30
2023-03-14T17:26:41.891Z,37.48
2023-03-14T17:29:10.682Z,37.56
2023-03-14T17:31:39.242Z,38.01
2023-03-14T17:34:09.105Z,38.21
2023-03-14T17:36:39.023Z,38.42
2023-03-14T17:39:09.192Z,38.56
2023-03-14T17:41:38.280Z,38.69
2023-03-14T17:44:13.049Z,38.86
2023-03-14T17:46:42.148Z,38.87
2023-03-14T17:49:10.775Z,38.98
2023-03-14T17:51:41.457Z,39.13
2023-03-14T17:54:09.817Z,39.25
2023-03-14T17:56:38.155Z,39.35
2023-03-14T17:59:06.569Z,39.49
2023-03-14T18:01:36.076Z,39.67
2023-03-14T18:04:04.693Z,39.93
2023-03-14T18:06:33.056Z,39.95
2023-03-14T18:09:04.955Z,40.35
2023-03-14T18:11:34.090Z,40.67
2023-03-14T18:14:06.090Z,40.73
2023-03-14T18:16:36.817Z,40.92
2023-03-14T18:19:05.296Z,41.00
2023-03-14T18:21:36.280Z,41.17
2023-03-14T18:24:06.411Z,41.17
2023-03-14T18:26:34.779Z,41.39
2023-03-14T18:29:04.823Z,41.53
2023-03-14T18:31:35.225Z,41.80
2023-03-14T18:34:03.632Z,42.27
2023-03-14T18:36:32.134Z,42.07
2023-03-14T18:39:01.176Z,42.23
2023-03-14T18:41:29.735Z,42.33
2023-03-14T18:43:58.665Z,42.37
2023-03-14T18:46:28.060Z,42.72
2023-03-14T18:48:56.671Z,42.66
2023-03-14T18:51:28.921Z,42.83
2023-03-14T18:54:08.918Z,42.64
2023-03-14T18:56:41.869Z,43.13
2023-03-14T18:59:15.890Z,42.97
2023-03-14T19:01:44.681Z,43.15
2023-03-14T19:04:14.602Z,43.57
2023-03-14T19:06:44.752Z,43.44
2023-03-14T19:09:17.081Z,43.85
2023-03-14T19:11:45.648Z,44.71
2023-03-14T19:14:16.191Z,45.67
2023-03-14T19:16:45.992Z,46.24
2023-03-14T19:19:16.052Z,46.11
2023-03-14T19:21:46.612Z,46.14
2023-03-14T19:24:19.804Z,46.37
2023-03-14T19:26:49.228Z,46.45
2023-03-14T19:29:20.595Z,46.09
2023-03-14T19:31:49.980Z,46.05
2023-03-14T19:34:19.950Z,45.82
2023-03-14T19:36:48.777Z,45.78
2023-03-14T19:39:19.842Z,45.93
2023-03-14T19:41:49.266Z,45.73
2023-03-14T19:44:18.691Z,45.78
2023-03-14T19:46:48.685Z,45.87
2023-03-14T19:49:17.850Z,45.59
2023-03-14T19:51:46.525Z,45.77
2023-03-14T19:54:15.383Z,46.10
2023-03-14T19:56:46.490Z,45.95
2023-03-14T19:59:15.150Z,46.30
2023-03-14T20:01:53.126Z,46.30
2023-03-14T20:04:22.307Z,46.41
2023-03-14T20:06:55.668Z,46.55
2023-03-14T20:09:24.788Z,46.62
2023-03-14T20:11:53.446Z,46.72
2023-03-14T20:14:28.306Z,46.52
2023-03-14T20:16:57.806Z,46.52
2023-03-14T20:19:27.694Z,46.30
2023-03-14T20:22:01.586Z,46.69
2023-03-14T20:24:32.526Z,46.66
2023-03-14T20:27:01.454Z,46.73
2023-03-14T20:29:34.864Z,46.62
2023-03-14T20:32:06.796Z,46.72
2023-03-14T20:34:41.642Z,46.72
2023-03-14T20:37:10.637Z,46.79
2023-03-14T20:39:40.962Z,46.78
2023-03-14T20:42:09.754Z,46.63
2023-03-14T20:44:38.624Z,46.81
2023-03-14T20:47:07.351Z,46.65
2023-03-14T20:49:35.793Z,47.13
2023-03-14T20:52:06.135Z,47.16
2023-03-14T20:54:35.921Z,47.40
2023-03-14T20:57:04.520Z,47.62
2023-03-14T20:59:35.634Z,48.31
2023-03-14T21:02:06.154Z,48.28
2023-03-14T21:04:36.234Z,47.82
2023-03-14T21:07:04.817Z,49.32
2023-03-14T21:09:34.165Z,49.97
2023-03-14T21:12:02.540Z,51.74
2023-03-14T21:14:31.664Z,53.24
2023-03-14T21:17:00.570Z,53.29
2023-03-14T21:19:34.169Z,55.40
2023-03-14T21:22:05.670Z,54.99
2023-03-14T21:24:34.673Z,55.74
2023-03-14T21:27:03.486Z,55.94
2023-03-14T21:29:32.158Z,56.22
2023-03-14T21:32:00.728Z,56.21
2023-03-14T21:34:30.775Z,56.23
2023-03-14T21:37:00.285Z,57.98
2023-03-14T21:39:29.978Z,57.08
2023-03-14T21:42:02.069Z,56.66
2023-03-14T21:44:37.107Z,56.38
2023-03-14T21:47:08.216Z,56.60
2023-03-14T21:49:39.525Z,56.49
2023-03-14T21:52:11.173Z,56.44
2023-03-14T21:54:42.932Z,56.73
2023-03-14T21:57:12.403Z,57.00
2023-03-14T21:59:42.125Z,57.22
2023-03-14T22:02:19.524Z,56.67
2023-03-14T22:04:47.979Z,57.20
2023-03-14T22:07:18.895Z,57.54
2023-03-14T22:09:52.244Z,57.81
2023-03-14T22:12:21.087Z,58.18
2023-03-14T22:14:51.313Z,57.79
2023-03-14T22:17:21.078Z,57.72
2023-03-14T22:19:49.215Z,57.89
2023-03-14T22:22:18.018Z,57.88
2023-03-14T22:24:47.113Z,57.62
2023-03-14T22:27:15.477Z,57.99
2023-03-14T22:29:43.851Z,57.49
2023-03-14T22:32:12.857Z,58.01
2023-03-14T22:34:41.174Z,57.84
2023-03-14T22:37:09.370Z,58.01
2023-03-14T22:39:38.429Z,58.01
2023-03-14T22:42:06.797Z,58.21
2023-03-14T22:44:36.464Z,58.27
2023-03-14T22:47:04.808Z,58.06
2023-03-14T22:49:33.609Z,58.73
2023-03-14T22:52:01.737Z,58.48
2023-03-14T22:54:30.348Z,58.45
2023-03-14T22:56:59.347Z,58.43
2023-03-14T22:59:28.560Z,58.68
2023-03-14T23:01:56.891Z,58.87
2023-03-14T23:04:24.878Z,58.90
2023-03-14T23:06:53.116Z,59.04
2023-03-14T23:09:21.830Z,58.89
2023-03-14T23:11:49.837Z,58.88
2023-03-14T23:14:18.326Z,59.01
2023-03-14T23:16:47.619Z,59.35
2023-03-14T23:19:15.802Z,59.18
2023-03-14T23:21:44.384Z,59.28
2023-03-14T23:24:12.651Z,59.39
2023-03-14T23:26:40.891Z,59.61
2023-03-14T23:29:10.201Z,59.35
2023-03-14T23:31:38.641Z,59.59
2023-03-14T23:34:10.947Z,59.85
2023-03-14T23:36:39.849Z,59.83
2023-03-14T23:39:09.188Z,59.72
2023-03-14T23:41:37.688Z,59.93
2023-03-14T23:44:06.330Z,59.91
2023-03-14T23:46:34.843Z,59.87
2023-03-14T23:49:03.336Z,59.79
2023-03-14T23:51:31.537Z,59.82
2023-03-14T23:53:59.902Z,59.70
2023-03-14T23:56:28.158Z,59.89
2023-03-14T23:58:56.260Z,59.86
